sensor_id;sensor_type;location;lat;lon;timestamp;temperature;humidity
9542;DHT22;4809;48.224;8.572;2022-07-06T00:01:20;17.40;80.80
9542;DHT22;4809;48.224;8.572;2022-07-06T00:03:46;17.30;81.00
9542;DHT22;4809;48.224;8.572;2022-07-06T00:06:12;17.30;80.30
9542;DHT22;4809;48.224;8.572;2022-07-06T00:08:38;17.30;80.50
9542;DHT22;4809;48.224;8.572;2022-07-06T00:11:05;17.20;80.90
9542;DHT22;4809;48.224;8.572;2022-07-06T00:13:31;17.10;81.30
9542;DHT22;4809;48.224;8.572;2022-07-06T00:15:56;17.10;81.40
9542;DHT22;4809;48.224;8.572;2022-07-06T00:18:22;17.00;81.60
9542;DHT22;4809;48.224;8.572;2022-07-06T00:20:48;16.90;82.50
9542;DHT22;4809;48.224;8.572;2022-07-06T00:23:14;16.80;82.70
9542;DHT22;4809;48.224;8.572;2022-07-06T00:25:40;16.70;83.20
9542;DHT22;4809;48.224;8.572;2022-07-06T00:28:05;16.60;83.00
9542;DHT22;4809;48.224;8.572;2022-07-06T00:30:31;16.60;83.30
9542;DHT22;4809;48.224;8.572;2022-07-06T00:32:57;16.70;83.30
9542;DHT22;4809;48.224;8.572;2022-07-06T00:35:24;16.70;83.20
9542;DHT22;4809;48.224;8.572;2022-07-06T00:37:50;16.60;83.10
9542;DHT22;4809;48.224;8.572;2022-07-06T00:40:16;16.50;83.30
9542;DHT22;4809;48.224;8.572;2022-07-06T00:42:43;16.50;83.60
9542;DHT22;4809;48.224;8.572;2022-07-06T00:45:10;16.50;83.80
9542;DHT22;4809;48.224;8.572;2022-07-06T00:47:36;16.40;84.10
9542;DHT22;4809;48.224;8.572;2022-07-06T00:50:04;16.30;84.20
9542;DHT22;4809;48.224;8.572;2022-07-06T00:52:44;16.30;84.30
9542;DHT22;4809;48.224;8.572;2022-07-06T00:55:10;16.30;84.30
9542;DHT22;4809;48.224;8.572;2022-07-06T00:57:36;16.40;84.20
9542;DHT22;4809;48.224;8.572;2022-07-06T01:02:44;16.40;84.30
9542;DHT22;4809;48.224;8.572;2022-07-06T01:05:12;16.30;84.30
9542;DHT22;4809;48.224;8.572;2022-07-06T01:07:40;16.30;84.50
9542;DHT22;4809;48.224;8.572;2022-07-06T01:10:07;16.30;84.20
9542;DHT22;4809;48.224;8.572;2022-07-06T01:12:38;16.40;84.30
9542;DHT22;4809;48.224;8.572;2022-07-06T01:15:06;16.40;84.40
9542;DHT22;4809;48.224;8.572;2022-07-06T01:17:35;16.40;84.70
9542;DHT22;4809;48.224;8.572;2022-07-06T01:22:36;16.40;84.20
9542;DHT22;4809;48.224;8.572;2022-07-06T01:25:03;16.40;84.50
9542;DHT22;4809;48.224;8.572;2022-07-06T01:27:28;16.40;84.40
9542;DHT22;4809;48.224;8.572;2022-07-06T01:29:54;16.40;84.90
9542;DHT22;4809;48.224;8.572;2022-07-06T01:32:20;16.20;85.30
9542;DHT22;4809;48.224;8.572;2022-07-06T01:34:46;16.20;85.60
9542;DHT22;4809;48.224;8.572;2022-07-06T01:37:11;16.10;86.10
9542;DHT22;4809;48.224;8.572;2022-07-06T01:39:37;16.00;86.20
9542;DHT22;4809;48.224;8.572;2022-07-06T01:42:03;15.90;86.60
9542;DHT22;4809;48.224;8.572;2022-07-06T01:44:29;15.90;86.70
9542;DHT22;4809;48.224;8.572;2022-07-06T01:46:55;15.90;87.20
9542;DHT22;4809;48.224;8.572;2022-07-06T01:49:20;15.80;87.60
9542;DHT22;4809;48.224;8.572;2022-07-06T01:51:47;15.70;88.00
9542;DHT22;4809;48.224;8.572;2022-07-06T01:54:12;15.60;88.20
9542;DHT22;4809;48.224;8.572;2022-07-06T01:56:38;15.60;88.30
9542;DHT22;4809;48.224;8.572;2022-07-06T01:59:04;15.60;88.50
9542;DHT22;4809;48.224;8.572;2022-07-06T02:01:29;15.60;88.50
9542;DHT22;4809;48.224;8.572;2022-07-06T02:03:55;15.50;88.70
9542;DHT22;4809;48.224;8.572;2022-07-06T02:06:20;15.50;89.00
9542;DHT22;4809;48.224;8.572;2022-07-06T02:08:46;15.50;89.00
9542;DHT22;4809;48.224;8.572;2022-07-06T02:11:12;15.40;89.40
9542;DHT22;4809;48.224;8.572;2022-07-06T02:13:38;15.40;89.70
9542;DHT22;4809;48.224;8.572;2022-07-06T02:16:04;15.40;89.90
9542;DHT22;4809;48.224;8.572;2022-07-06T02:18:30;15.40;90.00
9542;DHT22;4809;48.224;8.572;2022-07-06T02:20:56;15.40;90.00
9542;DHT22;4809;48.224;8.572;2022-07-06T02:23:21;15.40;90.10
9542;DHT22;4809;48.224;8.572;2022-07-06T02:25:47;15.40;90.00
9542;DHT22;4809;48.224;8.572;2022-07-06T02:28:13;15.30;90.10
9542;DHT22;4809;48.224;8.572;2022-07-06T02:30:39;15.30;90.10
9542;DHT22;4809;48.224;8.572;2022-07-06T02:33:04;15.20;90.40
9542;DHT22;4809;48.224;8.572;2022-07-06T02:35:30;15.20;90.60
9542;DHT22;4809;48.224;8.572;2022-07-06T02:37:55;15.30;90.40
9542;DHT22;4809;48.224;8.572;2022-07-06T02:40:21;15.30;90.50
9542;DHT22;4809;48.224;8.572;2022-07-06T02:42:47;15.30;90.60
9542;DHT22;4809;48.224;8.572;2022-07-06T02:45:13;15.30;90.40
9542;DHT22;4809;48.224;8.572;2022-07-06T02:47:38;15.30;90.60
9542;DHT22;4809;48.224;8.572;2022-07-06T02:56:48;15.20;90.80
9542;DHT22;4809;48.224;8.572;2022-07-06T02:59:17;15.20;90.60
9542;DHT22;4809;48.224;8.572;2022-07-06T03:01:43;15.30;90.40
9542;DHT22;4809;48.224;8.572;2022-07-06T03:04:09;15.30;90.40
9542;DHT22;4809;48.224;8.572;2022-07-06T03:06:34;15.30;90.70
9542;DHT22;4809;48.224;8.572;2022-07-06T03:09:00;15.30;90.90
9542;DHT22;4809;48.224;8.572;2022-07-06T03:11:26;15.20;90.90
9542;DHT22;4809;48.224;8.572;2022-07-06T03:13:51;15.20;90.90
9542;DHT22;4809;48.224;8.572;2022-07-06T03:16:17;15.10;91.10
9542;DHT22;4809;48.224;8.572;2022-07-06T03:18:43;15.10;91.30
9542;DHT22;4809;48.224;8.572;2022-07-06T03:21:08;14.90;91.50
9542;DHT22;4809;48.224;8.572;2022-07-06T03:23:34;14.90;91.60
9542;DHT22;4809;48.224;8.572;2022-07-06T03:26:00;14.80;91.90
9542;DHT22;4809;48.224;8.572;2022-07-06T03:28:25;14.80;92.10
9542;DHT22;4809;48.224;8.572;2022-07-06T03:30:51;14.70;92.20
9542;DHT22;4809;48.224;8.572;2022-07-06T03:33:17;14.70;92.10
9542;DHT22;4809;48.224;8.572;2022-07-06T03:35:42;14.70;92.00
9542;DHT22;4809;48.224;8.572;2022-07-06T03:38:08;14.70;91.90
9542;DHT22;4809;48.224;8.572;2022-07-06T03:40:34;14.70;91.90
9542;DHT22;4809;48.224;8.572;2022-07-06T03:42:59;14.70;92.00
9542;DHT22;4809;48.224;8.572;2022-07-06T03:45:25;14.80;91.90
9542;DHT22;4809;48.224;8.572;2022-07-06T03:47:51;14.80;92.00
9542;DHT22;4809;48.224;8.572;2022-07-06T03:50:16;14.70;92.10
9542;DHT22;4809;48.224;8.572;2022-07-06T03:52:42;14.60;92.40
9542;DHT22;4809;48.224;8.572;2022-07-06T03:55:11;14.50;92.70
9542;DHT22;4809;48.224;8.572;2022-07-06T03:57:40;14.40;92.90
9542;DHT22;4809;48.224;8.572;2022-07-06T04:00:08;14.40;93.00
9542;DHT22;4809;48.224;8.572;2022-07-06T04:02:34;14.40;93.10
9542;DHT22;4809;48.224;8.572;2022-07-06T04:04:59;14.40;93.20
9542;DHT22;4809;48.224;8.572;2022-07-06T04:07:26;14.40;92.90
9542;DHT22;4809;48.224;8.572;2022-07-06T04:09:51;14.50;92.90
9542;DHT22;4809;48.224;8.572;2022-07-06T04:12:17;14.50;92.90
9542;DHT22;4809;48.224;8.572;2022-07-06T04:14:43;14.60;92.90
9542;DHT22;4809;48.224;8.572;2022-07-06T04:17:09;14.70;92.90
9542;DHT22;4809;48.224;8.572;2022-07-06T04:19:53;14.80;92.90
9542;DHT22;4809;48.224;8.572;2022-07-06T04:22:19;14.80;92.80
9542;DHT22;4809;48.224;8.572;2022-07-06T04:24:45;14.80;92.80
9542;DHT22;4809;48.224;8.572;2022-07-06T04:27:11;14.80;93.40
9542;DHT22;4809;48.224;8.572;2022-07-06T04:29:36;14.80;93.20
9542;DHT22;4809;48.224;8.572;2022-07-06T04:32:02;14.70;93.50
9542;DHT22;4809;48.224;8.572;2022-07-06T04:34:28;14.80;93.40
9542;DHT22;4809;48.224;8.572;2022-07-06T04:36:57;14.90;93.50
9542;DHT22;4809;48.224;8.572;2022-07-06T04:39:22;15.00;93.40
9542;DHT22;4809;48.224;8.572;2022-07-06T04:41:48;15.00;93.70
9542;DHT22;4809;48.224;8.572;2022-07-06T04:44:14;15.00;93.60
9542;DHT22;4809;48.224;8.572;2022-07-06T04:46:40;15.10;94.10
9542;DHT22;4809;48.224;8.572;2022-07-06T04:49:05;15.10;93.80
9542;DHT22;4809;48.224;8.572;2022-07-06T04:51:32;15.20;94.00
9542;DHT22;4809;48.224;8.572;2022-07-06T04:53:58;15.20;94.10
9542;DHT22;4809;48.224;8.572;2022-07-06T04:56:24;15.30;94.00
9542;DHT22;4809;48.224;8.572;2022-07-06T04:58:49;15.50;94.00
9542;DHT22;4809;48.224;8.572;2022-07-06T05:01:16;15.50;94.20
9542;DHT22;4809;48.224;8.572;2022-07-06T05:03:41;15.60;94.30
9542;DHT22;4809;48.224;8.572;2022-07-06T05:06:07;15.70;94.40
9542;DHT22;4809;48.224;8.572;2022-07-06T05:08:33;15.70;94.50
9542;DHT22;4809;48.224;8.572;2022-07-06T05:10:59;15.80;94.50
9542;DHT22;4809;48.224;8.572;2022-07-06T05:13:25;15.90;94.60
9542;DHT22;4809;48.224;8.572;2022-07-06T05:15:51;16.00;94.60
9542;DHT22;4809;48.224;8.572;2022-07-06T05:18:16;16.00;94.70
9542;DHT22;4809;48.224;8.572;2022-07-06T05:20:42;16.10;94.60
9542;DHT22;4809;48.224;8.572;2022-07-06T05:23:08;16.20;94.20
9542;DHT22;4809;48.224;8.572;2022-07-06T05:25:34;16.30;93.70
9542;DHT22;4809;48.224;8.572;2022-07-06T05:27:59;16.50;92.90
9542;DHT22;4809;48.224;8.572;2022-07-06T05:30:25;16.60;92.70
9542;DHT22;4809;48.224;8.572;2022-07-06T05:32:51;16.70;92.50
9542;DHT22;4809;48.224;8.572;2022-07-06T05:35:17;16.70;92.40
9542;DHT22;4809;48.224;8.572;2022-07-06T05:37:43;16.70;92.30
9542;DHT22;4809;48.224;8.572;2022-07-06T05:40:09;16.90;92.20
9542;DHT22;4809;48.224;8.572;2022-07-06T05:42:35;17.00;92.20
9542;DHT22;4809;48.224;8.572;2022-07-06T05:45:00;17.00;92.10
9542;DHT22;4809;48.224;8.572;2022-07-06T05:47:26;17.10;92.30
9542;DHT22;4809;48.224;8.572;2022-07-06T05:50:11;17.10;92.10
9542;DHT22;4809;48.224;8.572;2022-07-06T05:52:40;17.10;92.30
9542;DHT22;4809;48.224;8.572;2022-07-06T05:55:08;17.20;92.00
9542;DHT22;4809;48.224;8.572;2022-07-06T05:57:34;17.30;91.50
9542;DHT22;4809;48.224;8.572;2022-07-06T05:59:59;17.40;91.60
9542;DHT22;4809;48.224;8.572;2022-07-06T06:02:25;17.40;91.60
9542;DHT22;4809;48.224;8.572;2022-07-06T06:04:51;17.50;91.30
9542;DHT22;4809;48.224;8.572;2022-07-06T06:07:16;17.60;91.20
9542;DHT22;4809;48.224;8.572;2022-07-06T06:09:42;17.70;91.00
9542;DHT22;4809;48.224;8.572;2022-07-06T06:12:08;17.70;90.80
9542;DHT22;4809;48.224;8.572;2022-07-06T06:14:33;17.80;90.90
9542;DHT22;4809;48.224;8.572;2022-07-06T06:16:59;17.80;90.80
9542;DHT22;4809;48.224;8.572;2022-07-06T06:19:25;17.90;90.40
9542;DHT22;4809;48.224;8.572;2022-07-06T06:21:50;18.00;90.60
9542;DHT22;4809;48.224;8.572;2022-07-06T06:24:17;18.10;90.60
9542;DHT22;4809;48.224;8.572;2022-07-06T06:26:43;18.10;90.20
9542;DHT22;4809;48.224;8.572;2022-07-06T06:29:09;18.20;90.40
9542;DHT22;4809;48.224;8.572;2022-07-06T06:31:34;18.30;90.50
9542;DHT22;4809;48.224;8.572;2022-07-06T06:34:00;18.40;90.50
9542;DHT22;4809;48.224;8.572;2022-07-06T06:36:26;18.40;90.20
9542;DHT22;4809;48.224;8.572;2022-07-06T06:38:51;18.30;90.10
9542;DHT22;4809;48.224;8.572;2022-07-06T06:41:17;18.40;90.50
9542;DHT22;4809;48.224;8.572;2022-07-06T06:43:43;18.50;89.90
9542;DHT22;4809;48.224;8.572;2022-07-06T06:46:11;18.60;89.30
9542;DHT22;4809;48.224;8.572;2022-07-06T06:48:37;18.60;90.10
9542;DHT22;4809;48.224;8.572;2022-07-06T06:51:04;18.80;89.60
9542;DHT22;4809;48.224;8.572;2022-07-06T06:53:29;18.90;89.70
9542;DHT22;4809;48.224;8.572;2022-07-06T06:55:55;19.10;89.80
9542;DHT22;4809;48.224;8.572;2022-07-06T06:58:20;19.20;90.10
9542;DHT22;4809;48.224;8.572;2022-07-06T07:00:46;19.20;90.00
9542;DHT22;4809;48.224;8.572;2022-07-06T07:03:13;19.40;89.00
9542;DHT22;4809;48.224;8.572;2022-07-06T07:05:38;19.50;89.70
9542;DHT22;4809;48.224;8.572;2022-07-06T07:08:05;19.60;89.30
9542;DHT22;4809;48.224;8.572;2022-07-06T07:10:31;19.70;89.10
9542;DHT22;4809;48.224;8.572;2022-07-06T07:12:57;19.70;90.20
9542;DHT22;4809;48.224;8.572;2022-07-06T07:15:22;19.90;89.80
9542;DHT22;4809;48.224;8.572;2022-07-06T07:17:48;19.90;90.50
9542;DHT22;4809;48.224;8.572;2022-07-06T07:20:14;20.00;88.60
9542;DHT22;4809;48.224;8.572;2022-07-06T07:22:39;20.00;90.10
9542;DHT22;4809;48.224;8.572;2022-07-06T07:25:06;20.10;90.00
9542;DHT22;4809;48.224;8.572;2022-07-06T07:27:35;20.30;88.90
9542;DHT22;4809;48.224;8.572;2022-07-06T07:30:00;20.50;88.90
9542;DHT22;4809;48.224;8.572;2022-07-06T07:32:26;20.50;87.70
9542;DHT22;4809;48.224;8.572;2022-07-06T07:34:52;20.60;87.60
9542;DHT22;4809;48.224;8.572;2022-07-06T07:37:17;20.70;85.90
9542;DHT22;4809;48.224;8.572;2022-07-06T07:39:43;20.80;85.90
9542;DHT22;4809;48.224;8.572;2022-07-06T07:42:09;20.90;86.80
9542;DHT22;4809;48.224;8.572;2022-07-06T07:44:34;20.90;86.10
9542;DHT22;4809;48.224;8.572;2022-07-06T07:47:00;21.00;88.20
9542;DHT22;4809;48.224;8.572;2022-07-06T07:49:26;21.20;88.00
9542;DHT22;4809;48.224;8.572;2022-07-06T07:51:51;21.30;86.30
9542;DHT22;4809;48.224;8.572;2022-07-06T07:54:17;21.50;86.40
9542;DHT22;4809;48.224;8.572;2022-07-06T07:56:43;21.50;84.10
9542;DHT22;4809;48.224;8.572;2022-07-06T07:59:09;21.50;85.40
9542;DHT22;4809;48.224;8.572;2022-07-06T08:01:35;21.70;83.80
9542;DHT22;4809;48.224;8.572;2022-07-06T08:04:01;21.70;84.50
9542;DHT22;4809;48.224;8.572;2022-07-06T08:06:26;21.80;84.10
9542;DHT22;4809;48.224;8.572;2022-07-06T08:08:52;22.00;84.60
9542;DHT22;4809;48.224;8.572;2022-07-06T08:11:18;22.10;84.00
9542;DHT22;4809;48.224;8.572;2022-07-06T08:13:44;22.20;82.40
9542;DHT22;4809;48.224;8.572;2022-07-06T08:16:13;22.30;83.30
9542;DHT22;4809;48.224;8.572;2022-07-06T08:18:39;22.40;82.40
9542;DHT22;4809;48.224;8.572;2022-07-06T08:21:05;22.30;83.30
9542;DHT22;4809;48.224;8.572;2022-07-06T08:23:31;22.50;82.10
9542;DHT22;4809;48.224;8.572;2022-07-06T08:25:56;22.70;82.50
9542;DHT22;4809;48.224;8.572;2022-07-06T08:28:22;22.80;81.00
9542;DHT22;4809;48.224;8.572;2022-07-06T08:30:47;22.70;78.80
9542;DHT22;4809;48.224;8.572;2022-07-06T08:33:14;22.70;78.30
9542;DHT22;4809;48.224;8.572;2022-07-06T08:35:39;22.80;80.20
9542;DHT22;4809;48.224;8.572;2022-07-06T08:38:05;23.00;80.20
9542;DHT22;4809;48.224;8.572;2022-07-06T08:40:34;22.90;79.30
9542;DHT22;4809;48.224;8.572;2022-07-06T08:43:02;22.90;79.20
9542;DHT22;4809;48.224;8.572;2022-07-06T08:45:29;23.00;78.90
9542;DHT22;4809;48.224;8.572;2022-07-06T08:47:58;23.20;80.50
9542;DHT22;4809;48.224;8.572;2022-07-06T08:50:26;23.30;75.80
9542;DHT22;4809;48.224;8.572;2022-07-06T08:52:52;23.30;76.50
9542;DHT22;4809;48.224;8.572;2022-07-06T08:55:18;23.50;79.00
9542;DHT22;4809;48.224;8.572;2022-07-06T08:57:47;23.80;78.00
9542;DHT22;4809;48.224;8.572;2022-07-06T09:00:13;23.90;76.30
9542;DHT22;4809;48.224;8.572;2022-07-06T09:02:40;24.00;74.60
9542;DHT22;4809;48.224;8.572;2022-07-06T09:05:07;23.80;72.40
9542;DHT22;4809;48.224;8.572;2022-07-06T09:07:34;23.80;72.50
9542;DHT22;4809;48.224;8.572;2022-07-06T09:10:00;23.70;75.10
9542;DHT22;4809;48.224;8.572;2022-07-06T09:12:27;23.90;71.70
9542;DHT22;4809;48.224;8.572;2022-07-06T09:14:57;23.90;72.70
9542;DHT22;4809;48.224;8.572;2022-07-06T09:17:27;23.90;72.40
9542;DHT22;4809;48.224;8.572;2022-07-06T09:19:54;24.30;74.30
9542;DHT22;4809;48.224;8.572;2022-07-06T09:22:31;24.30;73.80
9542;DHT22;4809;48.224;8.572;2022-07-06T09:25:05;24.10;76.90
9542;DHT22;4809;48.224;8.572;2022-07-06T09:27:32;24.10;73.60
9542;DHT22;4809;48.224;8.572;2022-07-06T09:30:02;24.50;74.90
9542;DHT22;4809;48.224;8.572;2022-07-06T09:32:28;24.80;73.50
9542;DHT22;4809;48.224;8.572;2022-07-06T09:34:54;24.90;70.60
9542;DHT22;4809;48.224;8.572;2022-07-06T09:37:21;24.70;68.00
9542;DHT22;4809;48.224;8.572;2022-07-06T09:39:47;24.80;71.90
9542;DHT22;4809;48.224;8.572;2022-07-06T09:42:13;24.90;71.60
9542;DHT22;4809;48.224;8.572;2022-07-06T09:44:41;25.10;73.30
9542;DHT22;4809;48.224;8.572;2022-07-06T09:47:08;25.40;72.60
9542;DHT22;4809;48.224;8.572;2022-07-06T09:49:38;25.60;71.20
9542;DHT22;4809;48.224;8.572;2022-07-06T09:52:08;25.90;68.10
9542;DHT22;4809;48.224;8.572;2022-07-06T09:54:35;26.10;67.10
9542;DHT22;4809;48.224;8.572;2022-07-06T09:57:03;25.60;66.80
9542;DHT22;4809;48.224;8.572;2022-07-06T09:59:30;25.30;67.20
9542;DHT22;4809;48.224;8.572;2022-07-06T10:02:09;25.40;69.50
9542;DHT22;4809;48.224;8.572;2022-07-06T10:04:35;25.80;67.80
9542;DHT22;4809;48.224;8.572;2022-07-06T10:07:01;25.60;69.20
9542;DHT22;4809;48.224;8.572;2022-07-06T10:09:28;25.40;68.80
9542;DHT22;4809;48.224;8.572;2022-07-06T10:11:56;25.50;70.60
9542;DHT22;4809;48.224;8.572;2022-07-06T10:14:27;25.20;69.30
9542;DHT22;4809;48.224;8.572;2022-07-06T10:16:59;24.90;68.70
9542;DHT22;4809;48.224;8.572;2022-07-06T10:19:26;24.70;70.80
9542;DHT22;4809;48.224;8.572;2022-07-06T10:21:52;25.00;69.80
9542;DHT22;4809;48.224;8.572;2022-07-06T10:24:21;25.70;71.00
9542;DHT22;4809;48.224;8.572;2022-07-06T10:26:48;26.40;67.00
9542;DHT22;4809;48.224;8.572;2022-07-06T10:29:14;26.80;66.60
9542;DHT22;4809;48.224;8.572;2022-07-06T10:31:43;26.70;66.80
9542;DHT22;4809;48.224;8.572;2022-07-06T10:34:11;26.90;66.10
9542;DHT22;4809;48.224;8.572;2022-07-06T10:36:39;27.10;65.80
9542;DHT22;4809;48.224;8.572;2022-07-06T10:39:05;27.30;61.60
9542;DHT22;4809;48.224;8.572;2022-07-06T10:41:51;27.30;63.90
9542;DHT22;4809;48.224;8.572;2022-07-06T10:44:23;27.00;63.00
9542;DHT22;4809;48.224;8.572;2022-07-06T10:46:57;26.70;62.90
9542;DHT22;4809;48.224;8.572;2022-07-06T10:49:24;26.50;61.30
9542;DHT22;4809;48.224;8.572;2022-07-06T10:51:51;26.60;62.80
9542;DHT22;4809;48.224;8.572;2022-07-06T10:54:18;26.30;63.60
9542;DHT22;4809;48.224;8.572;2022-07-06T10:59:18;26.20;60.20
9542;DHT22;4809;48.224;8.572;2022-07-06T11:02:15;25.60;61.30
9542;DHT22;4809;48.224;8.572;2022-07-06T11:04:43;25.60;61.60
9542;DHT22;4809;48.224;8.572;2022-07-06T11:07:15;26.20;64.90
9542;DHT22;4809;48.224;8.572;2022-07-06T11:09:41;26.90;62.80
9542;DHT22;4809;48.224;8.572;2022-07-06T11:12:17;27.60;60.10
9542;DHT22;4809;48.224;8.572;2022-07-06T11:14:48;27.70;58.00
9542;DHT22;4809;48.224;8.572;2022-07-06T11:17:14;27.90;57.90
9542;DHT22;4809;48.224;8.572;2022-07-06T11:19:55;28.00;57.20
9542;DHT22;4809;48.224;8.572;2022-07-06T11:22:21;28.40;58.30
9542;DHT22;4809;48.224;8.572;2022-07-06T11:24:50;28.80;57.30
9542;DHT22;4809;48.224;8.572;2022-07-06T11:27:17;28.90;53.10
9542;DHT22;4809;48.224;8.572;2022-07-06T11:29:43;28.70;53.50
9542;DHT22;4809;48.224;8.572;2022-07-06T11:32:11;28.70;54.40
9542;DHT22;4809;48.224;8.572;2022-07-06T11:34:42;29.00;54.70
9542;DHT22;4809;48.224;8.572;2022-07-06T11:37:15;29.20;54.50
9542;DHT22;4809;48.224;8.572;2022-07-06T11:39:45;29.00;53.20
9542;DHT22;4809;48.224;8.572;2022-07-06T11:42:13;29.00;52.60
9542;DHT22;4809;48.224;8.572;2022-07-06T11:44:40;29.20;53.50
9542;DHT22;4809;48.224;8.572;2022-07-06T11:47:07;29.40;53.60
9542;DHT22;4809;48.224;8.572;2022-07-06T11:49:35;29.60;53.70
9542;DHT22;4809;48.224;8.572;2022-07-06T11:52:08;29.30;52.20
9542;DHT22;4809;48.224;8.572;2022-07-06T11:54:34;29.40;52.50
9542;DHT22;4809;48.224;8.572;2022-07-06T11:57:00;29.30;54.50
9542;DHT22;4809;48.224;8.572;2022-07-06T11:59:28;29.00;54.00
9542;DHT22;4809;48.224;8.572;2022-07-06T12:02:06;29.10;51.10
9542;DHT22;4809;48.224;8.572;2022-07-06T12:04:34;29.00;51.50
9542;DHT22;4809;48.224;8.572;2022-07-06T12:07:04;29.10;50.60
9542;DHT22;4809;48.224;8.572;2022-07-06T12:09:32;29.70;52.20
9542;DHT22;4809;48.224;8.572;2022-07-06T12:11:58;29.70;50.80
9542;DHT22;4809;48.224;8.572;2022-07-06T12:14:28;29.60;51.60
9542;DHT22;4809;48.224;8.572;2022-07-06T12:16:54;29.40;53.80
9542;DHT22;4809;48.224;8.572;2022-07-06T12:19:22;29.00;51.50
9542;DHT22;4809;48.224;8.572;2022-07-06T12:21:49;28.90;52.80
9542;DHT22;4809;48.224;8.572;2022-07-06T12:24:26;29.10;52.90
9542;DHT22;4809;48.224;8.572;2022-07-06T12:27:33;29.60;53.30
9542;DHT22;4809;48.224;8.572;2022-07-06T12:29:51;29.70;53.70
9542;DHT22;4809;48.224;8.572;2022-07-06T12:32:18;29.70;53.60
9542;DHT22;4809;48.224;8.572;2022-07-06T12:34:44;30.00;52.30
9542;DHT22;4809;48.224;8.572;2022-07-06T12:37:11;29.70;53.40
9542;DHT22;4809;48.224;8.572;2022-07-06T12:39:42;29.50;53.00
9542;DHT22;4809;48.224;8.572;2022-07-06T12:42:08;29.30;52.60
9542;DHT22;4809;48.224;8.572;2022-07-06T12:44:45;29.70;53.60
9542;DHT22;4809;48.224;8.572;2022-07-06T12:47:11;29.70;55.20
9542;DHT22;4809;48.224;8.572;2022-07-06T12:49:38;29.80;55.50
9542;DHT22;4809;48.224;8.572;2022-07-06T12:54:50;30.00;55.70
9542;DHT22;4809;48.224;8.572;2022-07-06T12:57:17;30.30;53.60
9542;DHT22;4809;48.224;8.572;2022-07-06T13:00:09;30.20;53.60
9542;DHT22;4809;48.224;8.572;2022-07-06T13:02:35;30.10;53.80
9542;DHT22;4809;48.224;8.572;2022-07-06T13:07:33;29.90;53.20
9542;DHT22;4809;48.224;8.572;2022-07-06T13:10:03;29.80;52.80
9542;DHT22;4809;48.224;8.572;2022-07-06T13:12:29;30.00;52.80
9542;DHT22;4809;48.224;8.572;2022-07-06T13:14:54;30.80;53.00
9542;DHT22;4809;48.224;8.572;2022-07-06T13:17:20;31.40;52.90
9542;DHT22;4809;48.224;8.572;2022-07-06T13:19:46;31.40;51.10
9542;DHT22;4809;48.224;8.572;2022-07-06T13:22:12;31.10;48.90
9542;DHT22;4809;48.224;8.572;2022-07-06T13:24:38;31.00;52.00
9542;DHT22;4809;48.224;8.572;2022-07-06T13:27:04;30.90;50.30
9542;DHT22;4809;48.224;8.572;2022-07-06T13:29:29;30.90;50.40
9542;DHT22;4809;48.224;8.572;2022-07-06T13:31:55;30.70;49.80
9542;DHT22;4809;48.224;8.572;2022-07-06T13:34:21;30.70;49.00
9542;DHT22;4809;48.224;8.572;2022-07-06T13:36:47;31.00;50.10
9542;DHT22;4809;48.224;8.572;2022-07-06T13:39:12;30.90;49.10
9542;DHT22;4809;48.224;8.572;2022-07-06T13:41:38;30.80;50.00
9542;DHT22;4809;48.224;8.572;2022-07-06T13:44:04;30.90;50.00
9542;DHT22;4809;48.224;8.572;2022-07-06T13:46:30;30.90;47.40
9542;DHT22;4809;48.224;8.572;2022-07-06T13:48:57;30.80;49.70
9542;DHT22;4809;48.224;8.572;2022-07-06T13:51:24;30.90;50.20
9542;DHT22;4809;48.224;8.572;2022-07-06T13:53:52;31.20;49.30
9542;DHT22;4809;48.224;8.572;2022-07-06T13:56:18;31.40;48.70
9542;DHT22;4809;48.224;8.572;2022-07-06T13:58:44;31.00;46.90
9542;DHT22;4809;48.224;8.572;2022-07-06T14:01:10;30.80;47.00
9542;DHT22;4809;48.224;8.572;2022-07-06T14:03:36;30.50;48.50
9542;DHT22;4809;48.224;8.572;2022-07-06T14:06:04;30.30;49.00
9542;DHT22;4809;48.224;8.572;2022-07-06T14:08:30;30.60;49.70
9542;DHT22;4809;48.224;8.572;2022-07-06T14:10:56;30.90;50.10
9542;DHT22;4809;48.224;8.572;2022-07-06T14:13:22;30.70;48.60
9542;DHT22;4809;48.224;8.572;2022-07-06T14:15:48;30.50;49.70
9542;DHT22;4809;48.224;8.572;2022-07-06T14:18:14;30.50;49.60
9542;DHT22;4809;48.224;8.572;2022-07-06T14:20:45;30.60;49.10
9542;DHT22;4809;48.224;8.572;2022-07-06T14:23:12;30.40;49.20
9542;DHT22;4809;48.224;8.572;2022-07-06T14:25:39;30.50;50.60
9542;DHT22;4809;48.224;8.572;2022-07-06T14:28:05;30.40;50.30
9542;DHT22;4809;48.224;8.572;2022-07-06T14:30:33;30.30;50.50
9542;DHT22;4809;48.224;8.572;2022-07-06T14:33:08;30.40;51.10
9542;DHT22;4809;48.224;8.572;2022-07-06T14:35:41;30.10;50.50
9542;DHT22;4809;48.224;8.572;2022-07-06T14:38:07;29.90;50.10
9542;DHT22;4809;48.224;8.572;2022-07-06T14:40:34;29.70;51.20
9542;DHT22;4809;48.224;8.572;2022-07-06T14:43:01;29.90;53.10
9542;DHT22;4809;48.224;8.572;2022-07-06T14:45:27;30.30;51.50
9542;DHT22;4809;48.224;8.572;2022-07-06T14:47:53;30.40;49.20
9542;DHT22;4809;48.224;8.572;2022-07-06T14:50:19;30.30;49.00
9542;DHT22;4809;48.224;8.572;2022-07-06T14:52:45;30.30;50.80
9542;DHT22;4809;48.224;8.572;2022-07-06T14:55:11;30.40;49.80
9542;DHT22;4809;48.224;8.572;2022-07-06T14:57:37;30.30;49.90
9542;DHT22;4809;48.224;8.572;2022-07-06T15:00:04;30.70;50.20
9542;DHT22;4809;48.224;8.572;2022-07-06T15:02:30;31.00;49.80
9542;DHT22;4809;48.224;8.572;2022-07-06T15:04:56;31.00;51.00
9542;DHT22;4809;48.224;8.572;2022-07-06T15:07:21;31.20;50.30
9542;DHT22;4809;48.224;8.572;2022-07-06T15:09:47;31.20;49.40
9542;DHT22;4809;48.224;8.572;2022-07-06T15:12:13;30.90;50.10
9542;DHT22;4809;48.224;8.572;2022-07-06T15:14:38;30.60;50.10
9542;DHT22;4809;48.224;8.572;2022-07-06T15:17:04;30.50;49.80
9542;DHT22;4809;48.224;8.572;2022-07-06T15:19:30;30.40;50.80
9542;DHT22;4809;48.224;8.572;2022-07-06T15:21:56;30.40;51.10
9542;DHT22;4809;48.224;8.572;2022-07-06T15:24:22;30.40;50.90
9542;DHT22;4809;48.224;8.572;2022-07-06T15:26:49;30.30;50.70
9542;DHT22;4809;48.224;8.572;2022-07-06T15:29:15;30.00;51.10
9542;DHT22;4809;48.224;8.572;2022-07-06T15:31:41;29.90;52.30
9542;DHT22;4809;48.224;8.572;2022-07-06T15:34:07;29.60;50.80
9542;DHT22;4809;48.224;8.572;2022-07-06T15:36:32;29.50;52.40
9542;DHT22;4809;48.224;8.572;2022-07-06T15:38:58;29.40;54.20
9542;DHT22;4809;48.224;8.572;2022-07-06T15:41:24;29.40;54.70
9542;DHT22;4809;48.224;8.572;2022-07-06T15:43:50;29.10;53.50
9542;DHT22;4809;48.224;8.572;2022-07-06T15:46:15;28.90;54.20
9542;DHT22;4809;48.224;8.572;2022-07-06T15:48:41;29.10;53.60
9542;DHT22;4809;48.224;8.572;2022-07-06T15:51:07;29.10;54.50
9542;DHT22;4809;48.224;8.572;2022-07-06T15:53:32;29.00;55.60
9542;DHT22;4809;48.224;8.572;2022-07-06T15:55:59;28.90;54.80
9542;DHT22;4809;48.224;8.572;2022-07-06T15:58:25;28.80;55.70
9542;DHT22;4809;48.224;8.572;2022-07-06T16:00:51;28.50;55.50
9542;DHT22;4809;48.224;8.572;2022-07-06T16:03:17;28.10;55.90
9542;DHT22;4809;48.224;8.572;2022-07-06T16:05:43;27.60;56.70
9542;DHT22;4809;48.224;8.572;2022-07-06T16:08:09;27.20;57.10
9542;DHT22;4809;48.224;8.572;2022-07-06T16:10:35;26.90;58.60
9542;DHT22;4809;48.224;8.572;2022-07-06T16:13:01;26.60;58.00
9542;DHT22;4809;48.224;8.572;2022-07-06T16:15:27;26.50;58.70
9542;DHT22;4809;48.224;8.572;2022-07-06T16:17:53;26.20;59.10
9542;DHT22;4809;48.224;8.572;2022-07-06T16:20:19;26.00;59.90